sensor_id;sensor_type;location;lat;lon;timestamp;temperature;humidity
3860;DHT22;1945;52.036;8.614;2023-02-04T00:02:06;6.70;1.00
3860;DHT22;1945;52.036;8.614;2023-02-04T00:04:32;6.60;1.00
3860;DHT22;1945;52.036;8.614;2023-02-04T00:06:59;6.60;1.00
3860;DHT22;1945;52.036;8.614;2023-02-04T00:09:26;6.60;1.00
3860;DHT22;1945;52.036;8.614;2023-02-04T00:11:54;6.20;1.00
3860;DHT22;1945;52.036;8.614;2023-02-04T00:14:20;6.20;1.00
3860;DHT22;1945;52.036;8.614;2023-02-04T00:16:47;6.30;1.00
3860;DHT22;1945;52.036;8.614;2023-02-04T00:19:13;6.20;1.00
3860;DHT22;1945;52.036;8.614;2023-02-04T00:21:41;6.60;1.00
3860;DHT22;1945;52.036;8.614;2023-02-04T00:24:08;6.20;1.00
3860;DHT22;1945;52.036;8.614;2023-02-04T00:26:34;6.20;1.00
3860;DHT22;1945;52.036;8.614;2023-02-04T00:29:02;6.20;1.00
3860;DHT22;1945;52.036;8.614;2023-02-04T00:31:29;6.20;1.00
3860;DHT22;1945;52.036;8.614;2023-02-04T00:33:56;6.20;1.00
3860;DHT22;1945;52.036;8.614;2023-02-04T00:36:24;6.60;1.00
3860;DHT22;1945;52.036;8.614;2023-02-04T00:38:50;6.70;1.00
3860;DHT22;1945;52.036;8.614;2023-02-04T00:41:17;6.70;1.00
3860;DHT22;1945;52.036;8.614;2023-02-04T00:43:43;6.50;1.00
3860;DHT22;1945;52.036;8.614;2023-02-04T00:46:11;6.70;1.00
3860;DHT22;1945;52.036;8.614;2023-02-04T00:48:38;6.60;1.00
3860;DHT22;1945;52.036;8.614;2023-02-04T00:51:05;6.70;1.00
3860;DHT22;1945;52.036;8.614;2023-02-04T00:53:31;6.70;1.00
3860;DHT22;1945;52.036;8.614;2023-02-04T00:55:58;6.20;1.00
3860;DHT22;1945;52.036;8.614;2023-02-04T00:58:25;6.20;1.00
3860;DHT22;1945;52.036;8.614;2023-02-04T01:00:51;6.60;1.00
3860;DHT22;1945;52.036;8.614;2023-02-04T01:03:19;6.60;1.00
3860;DHT22;1945;52.036;8.614;2023-02-04T01:05:46;6.60;1.00
3860;DHT22;1945;52.036;8.614;2023-02-04T01:08:12;6.60;1.00
3860;DHT22;1945;52.036;8.614;2023-02-04T01:10:39;6.60;1.00
3860;DHT22;1945;52.036;8.614;2023-02-04T01:13:06;6.50;1.00
3860;DHT22;1945;52.036;8.614;2023-02-04T01:15:33;6.60;1.00
3860;DHT22;1945;52.036;8.614;2023-02-04T01:18:00;6.10;1.00
3860;DHT22;1945;52.036;8.614;2023-02-04T01:20:28;6.50;1.00
3860;DHT22;1945;52.036;8.614;2023-02-04T01:22:55;6.50;1.00
3860;DHT22;1945;52.036;8.614;2023-02-04T01:25:21;6.60;1.00
3860;DHT22;1945;52.036;8.614;2023-02-04T01:27:48;6.60;1.00
3860;DHT22;1945;52.036;8.614;2023-02-04T01:30:15;6.50;1.00
3860;DHT22;1945;52.036;8.614;2023-02-04T01:32:41;6.30;1.00
3860;DHT22;1945;52.036;8.614;2023-02-04T01:35:08;6.60;1.00
3860;DHT22;1945;52.036;8.614;2023-02-04T01:37:36;6.50;1.00
3860;DHT22;1945;52.036;8.614;2023-02-04T01:40:03;6.20;1.00
3860;DHT22;1945;52.036;8.614;2023-02-04T01:42:30;6.20;1.00
3860;DHT22;1945;52.036;8.614;2023-02-04T01:44:57;6.60;1.00
3860;DHT22;1945;52.036;8.614;2023-02-04T01:47:24;6.70;1.00
3860;DHT22;1945;52.036;8.614;2023-02-04T01:49:52;6.60;1.00
3860;DHT22;1945;52.036;8.614;2023-02-04T01:52:20;6.20;1.00
3860;DHT22;1945;52.036;8.614;2023-02-04T01:54:48;6.20;1.00
3860;DHT22;1945;52.036;8.614;2023-02-04T01:57:15;6.60;99.90
3860;DHT22;1945;52.036;8.614;2023-02-04T01:59:42;6.50;99.90
3860;DHT22;1945;52.036;8.614;2023-02-04T02:02:38;6.50;1.00
3860;DHT22;1945;52.036;8.614;2023-02-04T02:05:05;6.10;1.00
3860;DHT22;1945;52.036;8.614;2023-02-04T02:07:32;6.70;1.00
3860;DHT22;1945;52.036;8.614;2023-02-04T02:10:01;6.60;1.00
3860;DHT22;1945;52.036;8.614;2023-02-04T02:12:27;6.50;1.00
3860;DHT22;1945;52.036;8.614;2023-02-04T02:14:54;6.50;1.00
3860;DHT22;1945;52.036;8.614;2023-02-04T02:17:21;6.60;99.90
3860;DHT22;1945;52.036;8.614;2023-02-04T02:19:47;6.10;1.00
3860;DHT22;1945;52.036;8.614;2023-02-04T02:22:23;6.60;99.90
3860;DHT22;1945;52.036;8.614;2023-02-04T02:24:52;6.60;99.90
3860;DHT22;1945;52.036;8.614;2023-02-04T02:27:19;6.50;99.90
3860;DHT22;1945;52.036;8.614;2023-02-04T02:29:46;6.20;99.90
3860;DHT22;1945;52.036;8.614;2023-02-04T02:32:13;6.60;99.90
3860;DHT22;1945;52.036;8.614;2023-02-04T02:34:41;6.50;99.90
3860;DHT22;1945;52.036;8.614;2023-02-04T02:37:08;6.10;1.00
3860;DHT22;1945;52.036;8.614;2023-02-04T02:39:35;6.50;1.00
3860;DHT22;1945;52.036;8.614;2023-02-04T02:42:03;6.50;99.90
3860;DHT22;1945;52.036;8.614;2023-02-04T02:44:31;6.50;1.00
3860;DHT22;1945;52.036;8.614;2023-02-04T02:46:58;6.60;1.00
3860;DHT22;1945;52.036;8.614;2023-02-04T02:49:25;6.50;1.00
3860;DHT22;1945;52.036;8.614;2023-02-04T02:51:53;6.10;1.00
3860;DHT22;1945;52.036;8.614;2023-02-04T02:54:22;6.50;1.00
3860;DHT22;1945;52.036;8.614;2023-02-04T02:56:49;6.10;99.90
3860;DHT22;1945;52.036;8.614;2023-02-04T02:59:18;6.10;99.90
3860;DHT22;1945;52.036;8.614;2023-02-04T03:01:46;6.50;99.90
3860;DHT22;1945;52.036;8.614;2023-02-04T03:04:14;6.60;99.90
3860;DHT22;1945;52.036;8.614;2023-02-04T03:06:42;6.40;99.90
3860;DHT22;1945;52.036;8.614;2023-02-04T03:09:09;6.50;99.90
3860;DHT22;1945;52.036;8.614;2023-02-04T03:11:36;5.80;99.90
3860;DHT22;1945;52.036;8.614;2023-02-04T03:14:03;6.00;99.90
3860;DHT22;1945;52.036;8.614;2023-02-04T03:16:32;6.00;1.00
3860;DHT22;1945;52.036;8.614;2023-02-04T03:19:02;6.40;1.00
3860;DHT22;1945;52.036;8.614;2023-02-04T03:21:30;5.90;1.00
3860;DHT22;1945;52.036;8.614;2023-02-04T03:23:57;6.30;1.00
3860;DHT22;1945;52.036;8.614;2023-02-04T03:26:24;6.30;1.00
3860;DHT22;1945;52.036;8.614;2023-02-04T03:28:52;6.30;1.00
3860;DHT22;1945;52.036;8.614;2023-02-04T03:31:19;6.20;1.00
3860;DHT22;1945;52.036;8.614;2023-02-04T03:33:47;5.80;1.00
3860;DHT22;1945;52.036;8.614;2023-02-04T03:36:13;6.10;1.00
3860;DHT22;1945;52.036;8.614;2023-02-04T03:38:40;6.10;1.00
3860;DHT22;1945;52.036;8.614;2023-02-04T03:41:07;6.10;1.00
3860;DHT22;1945;52.036;8.614;2023-02-04T03:43:33;6.10;1.00
3860;DHT22;1945;52.036;8.614;2023-02-04T03:46:00;6.00;1.00
3860;DHT22;1945;52.036;8.614;2023-02-04T03:48:27;6.10;1.00
3860;DHT22;1945;52.036;8.614;2023-02-04T03:50:54;6.00;1.00
3860;DHT22;1945;52.036;8.614;2023-02-04T03:53:21;6.00;1.00
3860;DHT22;1945;52.036;8.614;2023-02-04T03:55:48;6.00;1.00
3860;DHT22;1945;52.036;8.614;2023-02-04T03:58:15;5.60;1.00
3860;DHT22;1945;52.036;8.614;2023-02-04T04:00:42;5.90;1.00
3860;DHT22;1945;52.036;8.614;2023-02-04T04:03:08;4.90;1.00
3860;DHT22;1945;52.036;8.614;2023-02-04T04:05:35;5.90;1.00
3860;DHT22;1945;52.036;8.614;2023-02-04T04:08:03;5.80;1.00
3860;DHT22;1945;52.036;8.614;2023-02-04T04:10:30;5.80;1.00
3860;DHT22;1945;52.036;8.614;2023-02-04T04:12:57;5.40;1.00
3860;DHT22;1945;52.036;8.614;2023-02-04T04:15:23;5.70;99.90
3860;DHT22;1945;52.036;8.614;2023-02-04T04:17:50;5.90;99.90
3860;DHT22;1945;52.036;8.614;2023-02-04T04:20:17;5.30;99.90
3860;DHT22;1945;52.036;8.614;2023-02-04T04:22:43;5.30;99.90
3860;DHT22;1945;52.036;8.614;2023-02-04T04:25:12;5.30;99.90
3860;DHT22;1945;52.036;8.614;2023-02-04T04:27:39;5.30;99.90
3860;DHT22;1945;52.036;8.614;2023-02-04T04:30:06;5.30;99.90
3860;DHT22;1945;52.036;8.614;2023-02-04T04:32:32;5.30;99.90
3860;DHT22;1945;52.036;8.614;2023-02-04T04:34:59;5.70;80.00
3860;DHT22;1945;52.036;8.614;2023-02-04T04:37:26;5.60;1.00
3860;DHT22;1945;52.036;8.614;2023-02-04T04:39:52;5.60;1.00
3860;DHT22;1945;52.036;8.614;2023-02-04T04:42:20;5.30;1.00
3860;DHT22;1945;52.036;8.614;2023-02-04T04:44:47;5.70;1.00
3860;DHT22;1945;52.036;8.614;2023-02-04T04:47:13;5.70;1.00
3860;DHT22;1945;52.036;8.614;2023-02-04T04:49:40;5.60;1.00
3860;DHT22;1945;52.036;8.614;2023-02-04T04:52:07;5.50;1.00
3860;DHT22;1945;52.036;8.614;2023-02-04T04:54:35;5.60;1.00
3860;DHT22;1945;52.036;8.614;2023-02-04T04:57:01;4.80;1.00
3860;DHT22;1945;52.036;8.614;2023-02-04T04:59:30;5.00;1.00
3860;DHT22;1945;52.036;8.614;2023-02-04T05:01:56;5.10;1.00
3860;DHT22;1945;52.036;8.614;2023-02-04T05:04:23;5.40;1.00
3860;DHT22;1945;52.036;8.614;2023-02-04T05:06:50;5.40;1.00
3860;DHT22;1945;52.036;8.614;2023-02-04T05:09:16;4.90;1.00
3860;DHT22;1945;52.036;8.614;2023-02-04T05:11:43;5.10;1.00
3860;DHT22;1945;52.036;8.614;2023-02-04T05:14:09;5.40;1.00
3860;DHT22;1945;52.036;8.614;2023-02-04T05:16:37;5.30;1.00
3860;DHT22;1945;52.036;8.614;2023-02-04T05:19:04;5.30;1.00
3860;DHT22;1945;52.036;8.614;2023-02-04T05:21:31;5.20;1.00
3860;DHT22;1945;52.036;8.614;2023-02-04T05:23:57;4.80;1.00
3860;DHT22;1945;52.036;8.614;2023-02-04T05:26:24;5.20;1.00
3860;DHT22;1945;52.036;8.614;2023-02-04T05:28:51;4.70;22.30
3860;DHT22;1945;52.036;8.614;2023-02-04T05:31:18;4.70;44.40
3860;DHT22;1945;52.036;8.614;2023-02-04T05:33:46;5.20;85.50
3860;DHT22;1945;52.036;8.614;2023-02-04T05:36:13;5.10;95.90
3860;DHT22;1945;52.036;8.614;2023-02-04T05:38:39;5.00;99.90
3860;DHT22;1945;52.036;8.614;2023-02-04T05:41:06;5.00;99.90
3860;DHT22;1945;52.036;8.614;2023-02-04T05:43:32;5.00;99.90
3860;DHT22;1945;52.036;8.614;2023-02-04T05:45:59;5.10;99.90
3860;DHT22;1945;52.036;8.614;2023-02-04T05:48:26;5.10;99.90
3860;DHT22;1945;52.036;8.614;2023-02-04T05:50:54;4.30;99.90
3860;DHT22;1945;52.036;8.614;2023-02-04T05:53:21;5.00;99.90
3860;DHT22;1945;52.036;8.614;2023-02-04T05:55:48;5.00;99.90
3860;DHT22;1945;52.036;8.614;2023-02-04T05:58:14;4.50;99.90
3860;DHT22;1945;52.036;8.614;2023-02-04T06:00:41;4.90;99.90
3860;DHT22;1945;52.036;8.614;2023-02-04T06:03:08;5.00;99.90
3860;DHT22;1945;52.036;8.614;2023-02-04T06:05:34;4.80;99.90
3860;DHT22;1945;52.036;8.614;2023-02-04T06:08:02;4.40;99.90
3860;DHT22;1945;52.036;8.614;2023-02-04T06:10:29;4.40;99.90
3860;DHT22;1945;52.036;8.614;2023-02-04T06:12:56;4.80;99.90
3860;DHT22;1945;52.036;8.614;2023-02-04T06:15:22;4.80;99.90
3860;DHT22;1945;52.036;8.614;2023-02-04T06:17:49;4.80;99.90
3860;DHT22;1945;52.036;8.614;2023-02-04T06:20:17;4.20;99.90
3860;DHT22;1945;52.036;8.614;2023-02-04T06:22:44;4.30;99.90
3860;DHT22;1945;52.036;8.614;2023-02-04T06:25:13;4.80;99.90
3860;DHT22;1945;52.036;8.614;2023-02-04T06:27:40;4.60;1.00
3860;DHT22;1945;52.036;8.614;2023-02-04T06:30:09;4.60;1.00
3860;DHT22;1945;52.036;8.614;2023-02-04T06:32:35;4.00;1.00
3860;DHT22;1945;52.036;8.614;2023-02-04T06:35:02;4.60;1.00
3860;DHT22;1945;52.036;8.614;2023-02-04T06:37:29;4.10;1.00
3860;DHT22;1945;52.036;8.614;2023-02-04T06:39:56;4.50;1.00
3860;DHT22;1945;52.036;8.614;2023-02-04T06:42:24;4.30;1.00
3860;DHT22;1945;52.036;8.614;2023-02-04T06:44:51;3.90;1.00
3860;DHT22;1945;52.036;8.614;2023-02-04T06:47:18;4.30;1.00
3860;DHT22;1945;52.036;8.614;2023-02-04T06:49:45;4.40;1.00
3860;DHT22;1945;52.036;8.614;2023-02-04T06:52:11;4.30;1.00
3860;DHT22;1945;52.036;8.614;2023-02-04T06:54:38;3.80;1.00
3860;DHT22;1945;52.036;8.614;2023-02-04T06:57:04;3.80;1.00
3860;DHT22;1945;52.036;8.614;2023-02-04T06:59:33;4.20;1.00
3860;DHT22;1945;52.036;8.614;2023-02-04T07:02:00;4.20;1.00
3860;DHT22;1945;52.036;8.614;2023-02-04T07:04:27;3.70;1.00
3860;DHT22;1945;52.036;8.614;2023-02-04T07:06:54;4.20;1.00
3860;DHT22;1945;52.036;8.614;2023-02-04T07:09:20;4.10;1.00
3860;DHT22;1945;52.036;8.614;2023-02-04T07:11:47;4.10;1.00
3860;DHT22;1945;52.036;8.614;2023-02-04T07:14:14;3.60;1.00
3860;DHT22;1945;52.036;8.614;2023-02-04T07:16:41;3.90;1.00
3860;DHT22;1945;52.036;8.614;2023-02-04T07:19:08;3.90;1.00
3860;DHT22;1945;52.036;8.614;2023-02-04T07:21:35;3.90;1.00
3860;DHT22;1945;52.036;8.614;2023-02-04T07:24:01;3.90;1.00
3860;DHT22;1945;52.036;8.614;2023-02-04T07:26:28;4.00;1.00
3860;DHT22;1945;52.036;8.614;2023-02-04T07:28:55;3.80;1.00
3860;DHT22;1945;52.036;8.614;2023-02-04T07:31:21;3.70;1.00
3860;DHT22;1945;52.036;8.614;2023-02-04T07:33:49;3.90;1.00
3860;DHT22;1945;52.036;8.614;2023-02-04T07:36:16;3.90;1.00
3860;DHT22;1945;52.036;8.614;2023-02-04T07:38:43;3.40;1.00
3860;DHT22;1945;52.036;8.614;2023-02-04T07:41:09;3.70;1.00
3860;DHT22;1945;52.036;8.614;2023-02-04T07:43:36;3.30;1.00
3860;DHT22;1945;52.036;8.614;2023-02-04T07:46:02;3.70;1.00
3860;DHT22;1945;52.036;8.614;2023-02-04T07:48:29;2.90;1.00
3860;DHT22;1945;52.036;8.614;2023-02-04T07:50:57;3.70;1.00
3860;DHT22;1945;52.036;8.614;2023-02-04T07:53:24;3.90;1.00
3860;DHT22;1945;52.036;8.614;2023-02-04T07:55:50;3.80;1.00
3860;DHT22;1945;52.036;8.614;2023-02-04T07:58:17;3.90;1.00
3860;DHT22;1945;52.036;8.614;2023-02-04T08:00:44;3.80;1.00
3860;DHT22;1945;52.036;8.614;2023-02-04T08:03:10;3.80;1.00
3860;DHT22;1945;52.036;8.614;2023-02-04T08:05:37;3.90;1.00
3860;DHT22;1945;52.036;8.614;2023-02-04T08:08:05;4.00;1.00
3860;DHT22;1945;52.036;8.614;2023-02-04T08:10:32;4.00;1.00
3860;DHT22;1945;52.036;8.614;2023-02-04T08:12:59;4.10;1.00
3860;DHT22;1945;52.036;8.614;2023-02-04T08:15:26;3.70;1.00
3860;DHT22;1945;52.036;8.614;2023-02-04T08:17:52;4.10;1.00
3860;DHT22;1945;52.036;8.614;2023-02-04T08:20:19;3.20;1.00
3860;DHT22;1945;52.036;8.614;2023-02-04T08:22:46;4.00;1.00
3860;DHT22;1945;52.036;8.614;2023-02-04T08:25:14;4.10;1.00
3860;DHT22;1945;52.036;8.614;2023-02-04T08:27:41;4.30;1.00
3860;DHT22;1945;52.036;8.614;2023-02-04T08:30:09;3.80;1.00
3860;DHT22;1945;52.036;8.614;2023-02-04T08:32:35;4.40;1.00
3860;DHT22;1945;52.036;8.614;2023-02-04T08:35:04;3.70;1.00
3860;DHT22;1945;52.036;8.614;2023-02-04T08:37:30;3.90;1.00
3860;DHT22;1945;52.036;8.614;2023-02-04T08:39:57;4.00;1.00
3860;DHT22;1945;52.036;8.614;2023-02-04T08:42:25;4.50;1.00
3860;DHT22;1945;52.036;8.614;2023-02-04T08:44:52;4.60;1.00
3860;DHT22;1945;52.036;8.614;2023-02-04T08:47:18;4.30;1.00
3860;DHT22;1945;52.036;8.614;2023-02-04T08:49:45;4.80;1.00
3860;DHT22;1945;52.036;8.614;2023-02-04T08:52:12;4.80;1.00
3860;DHT22;1945;52.036;8.614;2023-02-04T08:54:38;4.90;99.90
3860;DHT22;1945;52.036;8.614;2023-02-04T08:57:05;4.90;99.90
3860;DHT22;1945;52.036;8.614;2023-02-04T08:59:33;4.90;99.90
3860;DHT22;1945;52.036;8.614;2023-02-04T09:01:59;5.10;25.60
3860;DHT22;1945;52.036;8.614;2023-02-04T09:04:27;5.20;28.70
3860;DHT22;1945;52.036;8.614;2023-02-04T09:06:54;5.20;1.00
3860;DHT22;1945;52.036;8.614;2023-02-04T09:09:21;5.10;1.00
3860;DHT22;1945;52.036;8.614;2023-02-04T09:11:48;4.40;1.00
3860;DHT22;1945;52.036;8.614;2023-02-04T09:14:14;4.60;1.00
3860;DHT22;1945;52.036;8.614;2023-02-04T09:16:42;4.50;1.00
3860;DHT22;1945;52.036;8.614;2023-02-04T09:19:09;5.40;1.00
3860;DHT22;1945;52.036;8.614;2023-02-04T09:21:37;5.30;1.00
3860;DHT22;1945;52.036;8.614;2023-02-04T09:24:04;5.20;99.90
3860;DHT22;1945;52.036;8.614;2023-02-04T09:26:31;5.60;1.00
3860;DHT22;1945;52.036;8.614;2023-02-04T09:28:57;5.80;1.00
3860;DHT22;1945;52.036;8.614;2023-02-04T09:31:24;5.20;99.90
3860;DHT22;1945;52.036;8.614;2023-02-04T09:33:52;5.10;99.90
3860;DHT22;1945;52.036;8.614;2023-02-04T09:36:19;5.10;99.90
3860;DHT22;1945;52.036;8.614;2023-02-04T09:38:46;5.60;99.90
3860;DHT22;1945;52.036;8.614;2023-02-04T09:41:13;5.20;1.00
3860;DHT22;1945;52.036;8.614;2023-02-04T09:43:42;5.00;99.90
3860;DHT22;1945;52.036;8.614;2023-02-04T09:46:17;4.90;99.90
3860;DHT22;1945;52.036;8.614;2023-02-04T09:48:45;5.30;99.90
3860;DHT22;1945;52.036;8.614;2023-02-04T09:51:15;4.90;99.90
3860;DHT22;1945;52.036;8.614;2023-02-04T09:53:43;4.90;99.90
3860;DHT22;1945;52.036;8.614;2023-02-04T09:56:10;5.50;99.90
3860;DHT22;1945;52.036;8.614;2023-02-04T09:58:39;5.50;99.90
3860;DHT22;1945;52.036;8.614;2023-02-04T10:01:11;4.80;1.00
3860;DHT22;1945;52.036;8.614;2023-02-04T10:03:39;5.30;1.00
3860;DHT22;1945;52.036;8.614;2023-02-04T10:06:12;5.10;1.00
3860;DHT22;1945;52.036;8.614;2023-02-04T10:08:39;5.60;1.00
3860;DHT22;1945;52.036;8.614;2023-02-04T10:11:07;5.20;1.00
3860;DHT22;1945;52.036;8.614;2023-02-04T10:13:36;5.60;1.00
3860;DHT22;1945;52.036;8.614;2023-02-04T10:16:12;5.20;99.90
3860;DHT22;1945;52.036;8.614;2023-02-04T10:18:39;5.20;1.00
3860;DHT22;1945;52.036;8.614;2023-02-04T10:21:15;5.70;1.00
3860;DHT22;1945;52.036;8.614;2023-02-04T10:23:44;5.10;1.00
3860;DHT22;1945;52.036;8.614;2023-02-04T10:26:12;5.70;99.90
3860;DHT22;1945;52.036;8.614;2023-02-04T10:28:39;5.70;99.90
3860;DHT22;1945;52.036;8.614;2023-02-04T10:31:28;5.20;14.00
3860;DHT22;1945;52.036;8.614;2023-02-04T10:34:08;5.30;1.00
3860;DHT22;1945;52.036;8.614;2023-02-04T10:36:37;5.70;1.00
3860;DHT22;1945;52.036;8.614;2023-02-04T10:39:05;5.40;99.90
3860;DHT22;1945;52.036;8.614;2023-02-04T10:41:32;5.40;71.70
3860;DHT22;1945;52.036;8.614;2023-02-04T10:44:04;5.40;1.00
3860;DHT22;1945;52.036;8.614;2023-02-04T10:46:31;5.60;1.00
3860;DHT22;1945;52.036;8.614;2023-02-04T10:48:58;5.90;1.00
3860;DHT22;1945;52.036;8.614;2023-02-04T10:51:24;6.00;1.00
3860;DHT22;1945;52.036;8.614;2023-02-04T10:53:52;6.00;1.00
3860;DHT22;1945;52.036;8.614;2023-02-04T10:56:37;5.90;1.00
3860;DHT22;1945;52.036;8.614;2023-02-04T10:59:04;5.60;1.00
3860;DHT22;1945;52.036;8.614;2023-02-04T11:01:31;6.00;1.00
3860;DHT22;1945;52.036;8.614;2023-02-04T11:03:58;6.10;1.00
3860;DHT22;1945;52.036;8.614;2023-02-04T11:06:24;6.00;1.00
3860;DHT22;1945;52.036;8.614;2023-02-04T11:08:52;6.20;1.00
3860;DHT22;1945;52.036;8.614;2023-02-04T11:11:22;5.60;1.00
3860;DHT22;1945;52.036;8.614;2023-02-04T11:13:59;6.10;1.00
3860;DHT22;1945;52.036;8.614;2023-02-04T11:16:27;6.20;1.00
3860;DHT22;1945;52.036;8.614;2023-02-04T11:18:56;6.30;1.00
3860;DHT22;1945;52.036;8.614;2023-02-04T11:21:26;6.20;1.00
3860;DHT22;1945;52.036;8.614;2023-02-04T11:24:16;6.30;1.00
3860;DHT22;1945;52.036;8.614;2023-02-04T11:26:47;5.50;1.00
3860;DHT22;1945;52.036;8.614;2023-02-04T11:29:28;6.10;1.00
3860;DHT22;1945;52.036;8.614;2023-02-04T11:32:02;5.70;1.00
3860;DHT22;1945;52.036;8.614;2023-02-04T11:34:42;5.80;1.00
3860;DHT22;1945;52.036;8.614;2023-02-04T11:37:27;6.30;1.00
3860;DHT22;1945;52.036;8.614;2023-02-04T11:39:57;5.80;99.90
3860;DHT22;1945;52.036;8.614;2023-02-04T11:42:30;6.30;1.00
3860;DHT22;1945;52.036;8.614;2023-02-04T11:44:58;6.00;1.00
3860;DHT22;1945;52.036;8.614;2023-02-04T11:47:27;6.40;1.00
3860;DHT22;1945;52.036;8.614;2023-02-04T11:50:02;5.90;1.00
3860;DHT22;1945;52.036;8.614;2023-02-04T11:52:29;6.40;1.00
3860;DHT22;1945;52.036;8.614;2023-02-04T11:54:58;5.60;1.00
3860;DHT22;1945;52.036;8.614;2023-02-04T11:57:26;6.20;1.00
3860;DHT22;1945;52.036;8.614;2023-02-04T11:59:53;5.80;1.00
3860;DHT22;1945;52.036;8.614;2023-02-04T12:02:21;6.40;1.00
3860;DHT22;1945;52.036;8.614;2023-02-04T12:04:53;6.40;1.00
3860;DHT22;1945;52.036;8.614;2023-02-04T12:07:23;6.30;1.00
3860;DHT22;1945;52.036;8.614;2023-02-04T12:09:51;6.30;1.00
3860;DHT22;1945;52.036;8.614;2023-02-04T12:12:29;6.20;1.00
3860;DHT22;1945;52.036;8.614;2023-02-04T12:15:00;6.20;1.00
3860;DHT22;1945;52.036;8.614;2023-02-04T12:17:27;6.10;1.00
3860;DHT22;1945;52.036;8.614;2023-02-04T12:19:54;5.90;1.00
3860;DHT22;1945;52.036;8.614;2023-02-04T12:22:20;5.80;1.00
3860;DHT22;1945;52.036;8.614;2023-02-04T12:24:47;5.80;1.00
3860;DHT22;1945;52.036;8.614;2023-02-04T12:27:14;5.90;1.00
3860;DHT22;1945;52.036;8.614;2023-02-04T12:29:42;6.40;1.00
3860;DHT22;1945;52.036;8.614;2023-02-04T12:32:08;6.40;1.00
3860;DHT22;1945;52.036;8.614;2023-02-04T12:34:35;6.00;1.00
3860;DHT22;1945;52.036;8.614;2023-02-04T12:37:02;6.50;1.00
3860;DHT22;1945;52.036;8.614;2023-02-04T12:39:28;5.70;1.00
3860;DHT22;1945;52.036;8.614;2023-02-04T12:41:56;6.00;1.00
3860;DHT22;1945;52.036;8.614;2023-02-04T12:44:23;6.00;1.00
3860;DHT22;1945;52.036;8.614;2023-02-04T12:46:51;6.20;1.00
3860;DHT22;1945;52.036;8.614;2023-02-04T12:49:18;6.50;1.00
3860;DHT22;1945;52.036;8.614;2023-02-04T12:51:45;6.10;1.00
3860;DHT22;1945;52.036;8.614;2023-02-04T12:54:11;6.50;1.00
3860;DHT22;1945;52.036;8.614;2023-02-04T12:56:38;6.40;1.00
3860;DHT22;1945;52.036;8.614;2023-02-04T12:59:05;6.60;1.00
3860;DHT22;1945;52.036;8.614;2023-02-04T13:01:31;6.50;99.90
3860;DHT22;1945;52.036;8.614;2023-02-04T13:04:00;5.90;1.00
3860;DHT22;1945;52.036;8.614;2023-02-04T13:06:26;6.20;1.00
3860;DHT22;1945;52.036;8.614;2023-02-04T13:08:53;6.70;1.00
3860;DHT22;1945;52.036;8.614;2023-02-04T13:11:20;6.70;1.00
3860;DHT22;1945;52.036;8.614;2023-02-04T13:13:46;6.00;1.00
3860;DHT22;1945;52.036;8.614;2023-02-04T13:16:13;6.80;1.00
3860;DHT22;1945;52.036;8.614;2023-02-04T13:18:39;5.90;99.90
3860;DHT22;1945;52.036;8.614;2023-02-04T13:21:07;6.10;99.90
3860;DHT22;1945;52.036;8.614;2023-02-04T13:23:34;6.70;99.90
3860;DHT22;1945;52.036;8.614;2023-02-04T13:26:01;6.20;99.90
3860;DHT22;1945;52.036;8.614;2023-02-04T13:28:28;6.40;99.90
3860;DHT22;1945;52.036;8.614;2023-02-04T13:30:55;6.30;99.90
3860;DHT22;1945;52.036;8.614;2023-02-04T13:33:22;6.60;99.90
3860;DHT22;1945;52.036;8.614;2023-02-04T13:35:48;6.90;1.00
3860;DHT22;1945;52.036;8.614;2023-02-04T13:38:16;6.80;99.90
3860;DHT22;1945;52.036;8.614;2023-02-04T13:40:43;7.00;1.00
3860;DHT22;1945;52.036;8.614;2023-02-04T13:43:10;6.90;1.00
3860;DHT22;1945;52.036;8.614;2023-02-04T13:45:36;7.00;1.00
3860;DHT22;1945;52.036;8.614;2023-02-04T13:48:04;6.50;1.00
3860;DHT22;1945;52.036;8.614;2023-02-04T13:50:31;6.80;99.90
3860;DHT22;1945;52.036;8.614;2023-02-04T13:52:57;6.90;99.90
3860;DHT22;1945;52.036;8.614;2023-02-04T13:55:25;6.10;99.90
3860;DHT22;1945;52.036;8.614;2023-02-04T13:57:52;6.90;99.90
3860;DHT22;1945;52.036;8.614;2023-02-04T14:00:19;6.40;99.90
3860;DHT22;1945;52.036;8.614;2023-02-04T14:02:45;6.40;99.90
3860;DHT22;1945;52.036;8.614;2023-02-04T14:05:13;6.90;99.90
3860;DHT22;1945;52.036;8.614;2023-02-04T14:07:40;6.50;99.90
3860;DHT22;1945;52.036;8.614;2023-02-04T14:10:07;6.90;99.90
3860;DHT22;1945;52.036;8.614;2023-02-04T14:12:35;6.90;99.90
3860;DHT22;1945;52.036;8.614;2023-02-04T14:15:02;6.20;1.00
3860;DHT22;1945;52.036;8.614;2023-02-04T14:17:28;6.40;1.00
3860;DHT22;1945;52.036;8.614;2023-02-04T14:19:55;6.30;99.90
3860;DHT22;1945;52.036;8.614;2023-02-04T14:22:22;6.90;99.90
3860;DHT22;1945;52.036;8.614;2023-02-04T14:24:48;6.00;99.90
3860;DHT22;1945;52.036;8.614;2023-02-04T14:27:15;6.30;99.90
3860;DHT22;1945;52.036;8.614;2023-02-04T14:29:43;6.70;99.90
3860;DHT22;1945;52.036;8.614;2023-02-04T14:32:10;6.40;99.90
3860;DHT22;1945;52.036;8.614;2023-02-04T14:34:36;6.10;99.90
3860;DHT22;1945;52.036;8.614;2023-02-04T14:37:03;6.90;99.90
3860;DHT22;1945;52.036;8.614;2023-02-04T14:39:30;5.90;99.90
3860;DHT22;1945;52.036;8.614;2023-02-04T14:41:56;6.40;99.90
3860;DHT22;1945;52.036;8.614;2023-02-04T14:44:23;6.30;99.90
3860;DHT22;1945;52.036;8.614;2023-02-04T14:46:51;6.40;99.90
3860;DHT22;1945;52.036;8.614;2023-02-04T14:49:17;6.00;99.90
3860;DHT22;1945;52.036;8.614;2023-02-04T14:51:44;6.40;1.00
3860;DHT22;1945;52.036;8.614;2023-02-04T14:54:11;6.40;99.90
3860;DHT22;1945;52.036;8.614;2023-02-04T14:56:38;5.80;99.90
3860;DHT22;1945;52.036;8.614;2023-02-04T14:59:05;6.60;99.90
3860;DHT22;1945;52.036;8.614;2023-02-04T15:01:31;6.60;99.90
3860;DHT22;1945;52.036;8.614;2023-02-04T15:03:59;6.00;1.00
3860;DHT22;1945;52.036;8.614;2023-02-04T15:06:26;5.90;1.00
3860;DHT22;1945;52.036;8.614;2023-02-04T15:08:53;5.90;99.90
3860;DHT22;1945;52.036;8.614;2023-02-04T15:11:19;6.00;99.90
3860;DHT22;1945;52.036;8.614;2023-02-04T15:13:46;6.20;1.00
3860;DHT22;1945;52.036;8.614;2023-02-04T15:16:13;6.60;99.90
3860;DHT22;1945;52.036;8.614;2023-02-04T15:18:39;5.80;1.00
3860;DHT22;1945;52.036;8.614;2023-02-04T15:21:07;6.20;1.00
3860;DHT22;1945;52.036;8.614;2023-02-04T15:23:34;6.50;99.90
3860;DHT22;1945;52.036;8.614;2023-02-04T15:26:01;5.70;99.90
3860;DHT22;1945;52.036;8.614;2023-02-04T15:28:28;5.90;99.90
3860;DHT22;1945;52.036;8.614;2023-02-04T15:30:55;6.00;1.00
3860;DHT22;1945;52.036;8.614;2023-02-04T15:33:22;6.10;99.90
3860;DHT22;1945;52.036;8.614;2023-02-04T15:35:49;6.10;99.90
3860;DHT22;1945;52.036;8.614;2023-02-04T15:38:17;5.70;99.90
3860;DHT22;1945;52.036;8.614;2023-02-04T15:40:43;6.50;99.90
3860;DHT22;1945;52.036;8.614;2023-02-04T15:43:10;6.20;99.90
3860;DHT22;1945;52.036;8.614;2023-02-04T15:45:36;5.90;99.90
3860;DHT22;1945;52.036;8.614;2023-02-04T15:48:05;6.30;99.90
3860;DHT22;1945;52.036;8.614;2023-02-04T15:50:32;5.90;99.90
3860;DHT22;1945;52.036;8.614;2023-02-04T15:52:59;5.60;99.90
3860;DHT22;1945;52.036;8.614;2023-02-04T15:55:27;6.00;99.90
3860;DHT22;1945;52.036;8.614;2023-02-04T15:57:53;5.70;99.90
3860;DHT22;1945;52.036;8.614;2023-02-04T16:00:20;5.80;1.00
3860;DHT22;1945;52.036;8.614;2023-02-04T16:02:47;5.70;1.00
3860;DHT22;1945;52.036;8.614;2023-02-04T16:05:14;5.90;1.00
3860;DHT22;1945;52.036;8.614;2023-02-04T16:07:40;5.60;1.00
3860;DHT22;1945;52.036;8.614;2023-02-04T16:10:08;5.20;1.00
3860;DHT22;1945;52.036;8.614;2023-02-04T16:12:36;5.50;1.00
3860;DHT22;1945;52.036;8.614;2023-02-04T16:15:03;5.80;1.00
3860;DHT22;1945;52.036;8.614;2023-02-04T16:17:29;5.40;1.00
3860;DHT22;1945;52.036;8.614;2023-02-04T16:19:56;5.80;1.00
3860;DHT22;1945;52.036;8.614;2023-02-04T16:22:23;5.10;1.00
3860;DHT22;1945;52.036;8.614;2023-02-04T16:24:50;5.60;1.00
3860;DHT22;1945;52.036;8.614;2023-02-04T16:27:17;5.10;1.00
3860;DHT22;1945;52.036;8.614;2023-02-04T16:29:45;5.20;1.00
3860;DHT22;1945;52.036;8.614;2023-02-04T16:32:12;4.80;1.00